sensor_id;sensor_type;location;lat;lon;timestamp;temperature;humidity
11385;DHT22;5747;56.748;13.882;2022-07-29T00:00:22;8.90;99.90
11385;DHT22;5747;56.748;13.882;2022-07-29T00:02:50;8.90;99.90
11385;DHT22;5747;56.748;13.882;2022-07-29T00:05:18;8.80;99.90
11385;DHT22;5747;56.748;13.882;2022-07-29T00:07:46;8.70;99.90
11385;DHT22;5747;56.748;13.882;2022-07-29T00:10:16;8.70;99.90
11385;DHT22;5747;56.748;13.882;2022-07-29T00:12:44;8.70;99.90
11385;DHT22;5747;56.748;13.882;2022-07-29T00:15:12;8.60;99.90
11385;DHT22;5747;56.748;13.882;2022-07-29T00:17:40;8.60;99.90
11385;DHT22;5747;56.748;13.882;2022-07-29T00:20:09;8.70;99.90
11385;DHT22;5747;56.748;13.882;2022-07-29T00:22:38;8.50;99.90
11385;DHT22;5747;56.748;13.882;2022-07-29T00:25:07;8.40;99.90
11385;DHT22;5747;56.748;13.882;2022-07-29T00:27:36;8.30;99.90
11385;DHT22;5747;56.748;13.882;2022-07-29T00:30:06;8.30;99.90
11385;DHT22;5747;56.748;13.882;2022-07-29T00:32:34;8.30;99.90
11385;DHT22;5747;56.748;13.882;2022-07-29T00:35:02;8.30;99.90
11385;DHT22;5747;56.748;13.882;2022-07-29T00:37:48;8.30;99.90
11385;DHT22;5747;56.748;13.882;2022-07-29T00:40:16;8.20;99.90
11385;DHT22;5747;56.748;13.882;2022-07-29T00:42:51;8.20;99.90
11385;DHT22;5747;56.748;13.882;2022-07-29T00:45:20;8.20;99.90
11385;DHT22;5747;56.748;13.882;2022-07-29T00:47:48;8.10;99.90
11385;DHT22;5747;56.748;13.882;2022-07-29T00:50:18;8.10;99.90
11385;DHT22;5747;56.748;13.882;2022-07-29T00:52:46;8.10;99.90
11385;DHT22;5747;56.748;13.882;2022-07-29T00:55:15;8.20;99.90
11385;DHT22;5747;56.748;13.882;2022-07-29T00:57:45;8.10;99.90
11385;DHT22;5747;56.748;13.882;2022-07-29T01:00:16;8.10;99.90
11385;DHT22;5747;56.748;13.882;2022-07-29T01:02:45;8.10;99.90
11385;DHT22;5747;56.748;13.882;2022-07-29T01:05:16;8.00;99.90
11385;DHT22;5747;56.748;13.882;2022-07-29T01:07:46;8.00;99.90
11385;DHT22;5747;56.748;13.882;2022-07-29T01:10:15;7.90;99.90
11385;DHT22;5747;56.748;13.882;2022-07-29T01:12:44;7.90;99.90
11385;DHT22;5747;56.748;13.882;2022-07-29T01:15:15;7.80;99.90
11385;DHT22;5747;56.748;13.882;2022-07-29T01:17:48;7.80;99.90
11385;DHT22;5747;56.748;13.882;2022-07-29T01:20:24;7.70;99.90
11385;DHT22;5747;56.748;13.882;2022-07-29T01:23:27;7.70;99.90
11385;DHT22;5747;56.748;13.882;2022-07-29T01:26:17;7.60;99.90
11385;DHT22;5747;56.748;13.882;2022-07-29T01:29:14;7.50;99.90
11385;DHT22;5747;56.748;13.882;2022-07-29T01:31:48;7.50;99.90
11385;DHT22;5747;56.748;13.882;2022-07-29T01:34:31;7.40;99.90
11385;DHT22;5747;56.748;13.882;2022-07-29T01:37:06;7.30;99.90
11385;DHT22;5747;56.748;13.882;2022-07-29T01:39:37;7.30;99.90
11385;DHT22;5747;56.748;13.882;2022-07-29T01:42:12;7.30;99.90
11385;DHT22;5747;56.748;13.882;2022-07-29T01:44:50;7.20;99.90
11385;DHT22;5747;56.748;13.882;2022-07-29T01:47:25;7.20;99.90
11385;DHT22;5747;56.748;13.882;2022-07-29T01:49:56;7.20;99.90
11385;DHT22;5747;56.748;13.882;2022-07-29T01:52:28;7.10;99.90
11385;DHT22;5747;56.748;13.882;2022-07-29T01:54:59;7.10;99.90
11385;DHT22;5747;56.748;13.882;2022-07-29T01:57:31;7.10;99.90
11385;DHT22;5747;56.748;13.882;2022-07-29T02:00:05;7.10;99.90
11385;DHT22;5747;56.748;13.882;2022-07-29T02:02:43;7.00;99.90
11385;DHT22;5747;56.748;13.882;2022-07-29T02:05:14;7.00;99.90
11385;DHT22;5747;56.748;13.882;2022-07-29T02:07:43;6.90;99.90
11385;DHT22;5747;56.748;13.882;2022-07-29T02:10:13;6.90;99.90
11385;DHT22;5747;56.748;13.882;2022-07-29T02:12:45;6.90;99.90
11385;DHT22;5747;56.748;13.882;2022-07-29T02:15:19;6.90;99.90
11385;DHT22;5747;56.748;13.882;2022-07-29T02:17:50;6.90;99.90
11385;DHT22;5747;56.748;13.882;2022-07-29T02:20:19;6.90;99.90
11385;DHT22;5747;56.748;13.882;2022-07-29T02:22:50;6.80;99.90
11385;DHT22;5747;56.748;13.882;2022-07-29T02:25:21;6.80;99.90
11385;DHT22;5747;56.748;13.882;2022-07-29T02:27:50;6.90;99.90
11385;DHT22;5747;56.748;13.882;2022-07-29T02:30:22;6.90;99.90
11385;DHT22;5747;56.748;13.882;2022-07-29T02:32:51;6.90;99.90
11385;DHT22;5747;56.748;13.882;2022-07-29T02:35:22;6.80;99.90
11385;DHT22;5747;56.748;13.882;2022-07-29T02:37:51;6.80;99.90
11385;DHT22;5747;56.748;13.882;2022-07-29T02:40:37;6.90;99.90
11385;DHT22;5747;56.748;13.882;2022-07-29T02:43:07;7.00;99.90
11385;DHT22;5747;56.748;13.882;2022-07-29T02:45:38;6.90;99.90
11385;DHT22;5747;56.748;13.882;2022-07-29T02:48:10;6.80;99.90
11385;DHT22;5747;56.748;13.882;2022-07-29T02:50:44;6.70;99.90
11385;DHT22;5747;56.748;13.882;2022-07-29T02:53:18;6.80;99.90
11385;DHT22;5747;56.748;13.882;2022-07-29T02:55:53;6.70;99.90
11385;DHT22;5747;56.748;13.882;2022-07-29T02:58:25;6.70;99.90
11385;DHT22;5747;56.748;13.882;2022-07-29T03:00:58;6.70;99.90
11385;DHT22;5747;56.748;13.882;2022-07-29T03:03:29;6.60;99.90
11385;DHT22;5747;56.748;13.882;2022-07-29T03:06:01;6.70;99.90
11385;DHT22;5747;56.748;13.882;2022-07-29T03:08:31;6.60;99.90
11385;DHT22;5747;56.748;13.882;2022-07-29T03:11:00;6.60;99.90
11385;DHT22;5747;56.748;13.882;2022-07-29T03:13:29;6.70;99.90
11385;DHT22;5747;56.748;13.882;2022-07-29T03:16:00;6.70;99.90
11385;DHT22;5747;56.748;13.882;2022-07-29T03:18:30;6.70;99.90
11385;DHT22;5747;56.748;13.882;2022-07-29T03:20:59;6.70;99.90
11385;DHT22;5747;56.748;13.882;2022-07-29T03:23:27;6.70;99.90
11385;DHT22;5747;56.748;13.882;2022-07-29T03:26:02;6.70;99.90
11385;DHT22;5747;56.748;13.882;2022-07-29T03:28:30;6.70;99.90
11385;DHT22;5747;56.748;13.882;2022-07-29T03:31:01;6.70;99.90
11385;DHT22;5747;56.748;13.882;2022-07-29T03:33:31;6.80;99.90
11385;DHT22;5747;56.748;13.882;2022-07-29T03:35:59;6.80;99.90
11385;DHT22;5747;56.748;13.882;2022-07-29T03:38:30;7.00;99.90
11385;DHT22;5747;56.748;13.882;2022-07-29T03:41:05;7.10;99.90
11385;DHT22;5747;56.748;13.882;2022-07-29T03:43:38;7.10;99.90
11385;DHT22;5747;56.748;13.882;2022-07-29T03:46:17;7.20;99.90
11385;DHT22;5747;56.748;13.882;2022-07-29T03:48:50;7.30;99.90
11385;DHT22;5747;56.748;13.882;2022-07-29T03:51:20;7.40;99.90
11385;DHT22;5747;56.748;13.882;2022-07-29T03:54:00;7.60;99.90
11385;DHT22;5747;56.748;13.882;2022-07-29T03:56:39;7.60;99.90
11385;DHT22;5747;56.748;13.882;2022-07-29T03:59:08;7.60;99.90
11385;DHT22;5747;56.748;13.882;2022-07-29T04:01:39;7.80;99.90
11385;DHT22;5747;56.748;13.882;2022-07-29T04:04:08;7.90;99.90
11385;DHT22;5747;56.748;13.882;2022-07-29T04:06:41;8.10;99.90
11385;DHT22;5747;56.748;13.882;2022-07-29T04:09:10;8.20;99.90
11385;DHT22;5747;56.748;13.882;2022-07-29T04:11:39;8.30;99.90
11385;DHT22;5747;56.748;13.882;2022-07-29T04:14:28;8.50;99.90
11385;DHT22;5747;56.748;13.882;2022-07-29T04:16:57;8.50;99.90
11385;DHT22;5747;56.748;13.882;2022-07-29T04:19:25;8.70;99.90
11385;DHT22;5747;56.748;13.882;2022-07-29T04:21:54;8.80;99.90
11385;DHT22;5747;56.748;13.882;2022-07-29T04:24:22;8.90;99.90
11385;DHT22;5747;56.748;13.882;2022-07-29T04:26:50;9.00;99.90
11385;DHT22;5747;56.748;13.882;2022-07-29T04:29:18;9.20;99.90
11385;DHT22;5747;56.748;13.882;2022-07-29T04:31:46;9.20;99.90
11385;DHT22;5747;56.748;13.882;2022-07-29T04:34:16;9.30;99.90
11385;DHT22;5747;56.748;13.882;2022-07-29T04:36:45;9.50;99.90
11385;DHT22;5747;56.748;13.882;2022-07-29T04:39:13;9.60;99.90
11385;DHT22;5747;56.748;13.882;2022-07-29T04:41:48;9.80;99.90
11385;DHT22;5747;56.748;13.882;2022-07-29T04:44:18;10.00;99.90
11385;DHT22;5747;56.748;13.882;2022-07-29T04:46:46;10.20;99.90
11385;DHT22;5747;56.748;13.882;2022-07-29T04:49:16;10.50;99.90
11385;DHT22;5747;56.748;13.882;2022-07-29T04:51:44;10.70;99.90
11385;DHT22;5747;56.748;13.882;2022-07-29T04:54:12;11.00;99.90
11385;DHT22;5747;56.748;13.882;2022-07-29T04:56:40;11.00;99.90
11385;DHT22;5747;56.748;13.882;2022-07-29T04:59:09;10.90;99.90
11385;DHT22;5747;56.748;13.882;2022-07-29T05:01:39;11.30;99.90
11385;DHT22;5747;56.748;13.882;2022-07-29T05:04:08;11.60;99.90
11385;DHT22;5747;56.748;13.882;2022-07-29T05:06:38;11.80;99.90
11385;DHT22;5747;56.748;13.882;2022-07-29T05:09:06;11.90;99.90
11385;DHT22;5747;56.748;13.882;2022-07-29T05:11:34;11.90;99.90
11385;DHT22;5747;56.748;13.882;2022-07-29T05:14:02;12.00;99.90
11385;DHT22;5747;56.748;13.882;2022-07-29T05:16:30;12.40;99.90
11385;DHT22;5747;56.748;13.882;2022-07-29T05:18:58;12.60;99.90
11385;DHT22;5747;56.748;13.882;2022-07-29T05:21:26;12.80;99.90
11385;DHT22;5747;56.748;13.882;2022-07-29T05:23:56;13.20;99.90
11385;DHT22;5747;56.748;13.882;2022-07-29T05:26:24;13.70;99.90
11385;DHT22;5747;56.748;13.882;2022-07-29T05:28:52;14.10;99.90
11385;DHT22;5747;56.748;13.882;2022-07-29T05:31:20;14.20;99.90
11385;DHT22;5747;56.748;13.882;2022-07-29T05:33:48;14.20;99.90
11385;DHT22;5747;56.748;13.882;2022-07-29T05:36:17;14.20;99.90
11385;DHT22;5747;56.748;13.882;2022-07-29T05:38:45;14.20;99.90
11385;DHT22;5747;56.748;13.882;2022-07-29T05:41:14;14.10;99.90
11385;DHT22;5747;56.748;13.882;2022-07-29T05:43:43;14.10;99.90
11385;DHT22;5747;56.748;13.882;2022-07-29T05:46:11;14.30;99.90
11385;DHT22;5747;56.748;13.882;2022-07-29T05:48:40;15.00;99.90
11385;DHT22;5747;56.748;13.882;2022-07-29T05:51:08;14.90;99.90
11385;DHT22;5747;56.748;13.882;2022-07-29T05:53:37;14.90;99.90
11385;DHT22;5747;56.748;13.882;2022-07-29T05:56:06;15.00;99.90
11385;DHT22;5747;56.748;13.882;2022-07-29T05:58:35;15.00;99.90
11385;DHT22;5747;56.748;13.882;2022-07-29T06:01:03;15.30;99.90
11385;DHT22;5747;56.748;13.882;2022-07-29T06:03:32;15.10;99.90
11385;DHT22;5747;56.748;13.882;2022-07-29T06:06:01;15.40;99.90
11385;DHT22;5747;56.748;13.882;2022-07-29T06:08:29;15.30;99.90
11385;DHT22;5747;56.748;13.882;2022-07-29T06:10:57;15.20;99.90
11385;DHT22;5747;56.748;13.882;2022-07-29T06:13:25;15.60;99.90
11385;DHT22;5747;56.748;13.882;2022-07-29T06:15:55;15.40;99.90
11385;DHT22;5747;56.748;13.882;2022-07-29T06:18:25;15.70;99.90
11385;DHT22;5747;56.748;13.882;2022-07-29T06:20:53;15.70;99.90
11385;DHT22;5747;56.748;13.882;2022-07-29T06:23:22;15.90;99.90
11385;DHT22;5747;56.748;13.882;2022-07-29T06:25:50;16.40;99.90
11385;DHT22;5747;56.748;13.882;2022-07-29T06:28:18;17.00;99.90
11385;DHT22;5747;56.748;13.882;2022-07-29T06:30:46;17.90;99.90
11385;DHT22;5747;56.748;13.882;2022-07-29T06:33:19;18.50;99.90
11385;DHT22;5747;56.748;13.882;2022-07-29T06:35:47;19.00;99.90
11385;DHT22;5747;56.748;13.882;2022-07-29T06:38:20;19.30;99.90
11385;DHT22;5747;56.748;13.882;2022-07-29T06:41:00;20.10;99.90
11385;DHT22;5747;56.748;13.882;2022-07-29T06:43:30;20.90;99.90
11385;DHT22;5747;56.748;13.882;2022-07-29T06:46:02;20.90;99.90
11385;DHT22;5747;56.748;13.882;2022-07-29T06:48:32;21.90;99.90
11385;DHT22;5747;56.748;13.882;2022-07-29T06:51:00;23.00;99.90
11385;DHT22;5747;56.748;13.882;2022-07-29T06:53:29;23.60;99.90
11385;DHT22;5747;56.748;13.882;2022-07-29T06:55:57;24.20;99.90
11385;DHT22;5747;56.748;13.882;2022-07-29T06:58:26;23.30;99.90
11385;DHT22;5747;56.748;13.882;2022-07-29T07:00:54;22.40;99.90
11385;DHT22;5747;56.748;13.882;2022-07-29T07:03:23;21.30;99.90
11385;DHT22;5747;56.748;13.882;2022-07-29T07:05:53;20.80;99.90
11385;DHT22;5747;56.748;13.882;2022-07-29T07:08:22;20.70;99.90
11385;DHT22;5747;56.748;13.882;2022-07-29T07:10:51;20.30;99.90
11385;DHT22;5747;56.748;13.882;2022-07-29T07:13:19;19.80;99.90
11385;DHT22;5747;56.748;13.882;2022-07-29T07:15:47;19.30;99.90
11385;DHT22;5747;56.748;13.882;2022-07-29T07:18:16;19.30;99.90
11385;DHT22;5747;56.748;13.882;2022-07-29T07:20:45;19.30;99.90
11385;DHT22;5747;56.748;13.882;2022-07-29T07:23:15;19.30;99.90
11385;DHT22;5747;56.748;13.882;2022-07-29T07:25:43;19.30;99.90
11385;DHT22;5747;56.748;13.882;2022-07-29T07:28:11;19.30;99.90
11385;DHT22;5747;56.748;13.882;2022-07-29T07:30:40;19.40;99.90
11385;DHT22;5747;56.748;13.882;2022-07-29T07:33:08;19.50;99.90
11385;DHT22;5747;56.748;13.882;2022-07-29T07:35:36;19.40;99.90
11385;DHT22;5747;56.748;13.882;2022-07-29T07:38:04;19.40;99.90
11385;DHT22;5747;56.748;13.882;2022-07-29T07:40:35;19.30;99.90
11385;DHT22;5747;56.748;13.882;2022-07-29T07:43:03;19.30;99.90
11385;DHT22;5747;56.748;13.882;2022-07-29T07:45:32;19.50;99.90
11385;DHT22;5747;56.748;13.882;2022-07-29T07:48:00;19.70;99.90
11385;DHT22;5747;56.748;13.882;2022-07-29T07:50:28;19.80;99.90
11385;DHT22;5747;56.748;13.882;2022-07-29T07:52:56;19.90;99.90
11385;DHT22;5747;56.748;13.882;2022-07-29T07:55:25;20.10;99.90
11385;DHT22;5747;56.748;13.882;2022-07-29T07:57:55;20.20;99.90
11385;DHT22;5747;56.748;13.882;2022-07-29T08:00:23;20.30;99.90
11385;DHT22;5747;56.748;13.882;2022-07-29T08:02:52;20.20;99.90
11385;DHT22;5747;56.748;13.882;2022-07-29T08:05:20;20.00;99.90
11385;DHT22;5747;56.748;13.882;2022-07-29T08:07:48;20.00;99.90
11385;DHT22;5747;56.748;13.882;2022-07-29T08:10:17;19.90;99.90
11385;DHT22;5747;56.748;13.882;2022-07-29T08:13:09;19.80;99.90
11385;DHT22;5747;56.748;13.882;2022-07-29T08:15:39;19.90;99.90
11385;DHT22;5747;56.748;13.882;2022-07-29T08:18:07;20.10;99.90
11385;DHT22;5747;56.748;13.882;2022-07-29T08:20:36;20.10;99.90
11385;DHT22;5747;56.748;13.882;2022-07-29T08:23:06;20.20;99.90
11385;DHT22;5747;56.748;13.882;2022-07-29T08:25:36;20.30;99.90
11385;DHT22;5747;56.748;13.882;2022-07-29T08:28:07;20.40;99.90
11385;DHT22;5747;56.748;13.882;2022-07-29T08:30:36;20.40;99.90
11385;DHT22;5747;56.748;13.882;2022-07-29T08:33:04;20.30;99.90
11385;DHT22;5747;56.748;13.882;2022-07-29T08:35:32;20.20;99.90
11385;DHT22;5747;56.748;13.882;2022-07-29T08:38:02;20.30;99.90
11385;DHT22;5747;56.748;13.882;2022-07-29T08:40:31;20.50;99.90
11385;DHT22;5747;56.748;13.882;2022-07-29T08:43:03;20.80;99.90
11385;DHT22;5747;56.748;13.882;2022-07-29T08:45:41;20.90;99.90
11385;DHT22;5747;56.748;13.882;2022-07-29T08:48:15;21.20;99.90
11385;DHT22;5747;56.748;13.882;2022-07-29T08:50:45;21.30;99.90
11385;DHT22;5747;56.748;13.882;2022-07-29T08:53:16;21.10;99.90
11385;DHT22;5747;56.748;13.882;2022-07-29T08:55:46;20.90;99.90
11385;DHT22;5747;56.748;13.882;2022-07-29T08:58:16;21.10;99.90
11385;DHT22;5747;56.748;13.882;2022-07-29T09:00:53;21.30;99.90
11385;DHT22;5747;56.748;13.882;2022-07-29T09:03:24;21.50;99.90
11385;DHT22;5747;56.748;13.882;2022-07-29T09:05:52;21.60;99.90
11385;DHT22;5747;56.748;13.882;2022-07-29T09:08:21;21.90;99.90
11385;DHT22;5747;56.748;13.882;2022-07-29T09:10:50;22.10;99.90
11385;DHT22;5747;56.748;13.882;2022-07-29T09:13:19;22.30;99.90
11385;DHT22;5747;56.748;13.882;2022-07-29T09:15:47;22.40;99.90
11385;DHT22;5747;56.748;13.882;2022-07-29T09:21:09;22.40;99.90
11385;DHT22;5747;56.748;13.882;2022-07-29T09:24:05;22.10;99.90
11385;DHT22;5747;56.748;13.882;2022-07-29T09:26:36;21.60;99.90
11385;DHT22;5747;56.748;13.882;2022-07-29T09:29:09;21.60;99.90
11385;DHT22;5747;56.748;13.882;2022-07-29T09:31:40;21.80;99.90
11385;DHT22;5747;56.748;13.882;2022-07-29T09:34:09;21.70;99.90
11385;DHT22;5747;56.748;13.882;2022-07-29T09:36:43;21.60;99.90
11385;DHT22;5747;56.748;13.882;2022-07-29T09:39:12;21.70;99.90
11385;DHT22;5747;56.748;13.882;2022-07-29T09:41:45;21.30;99.90
11385;DHT22;5747;56.748;13.882;2022-07-29T09:44:13;21.30;99.90
11385;DHT22;5747;56.748;13.882;2022-07-29T09:46:57;21.40;99.90
11385;DHT22;5747;56.748;13.882;2022-07-29T09:49:26;21.40;99.90
11385;DHT22;5747;56.748;13.882;2022-07-29T09:52:09;21.50;99.90
11385;DHT22;5747;56.748;13.882;2022-07-29T09:54:37;21.90;99.90
11385;DHT22;5747;56.748;13.882;2022-07-29T09:57:07;22.10;99.90
11385;DHT22;5747;56.748;13.882;2022-07-29T09:59:39;22.40;99.90
11385;DHT22;5747;56.748;13.882;2022-07-29T10:02:16;22.70;99.90
11385;DHT22;5747;56.748;13.882;2022-07-29T10:04:49;22.70;99.90
11385;DHT22;5747;56.748;13.882;2022-07-29T10:07:19;22.30;99.90
11385;DHT22;5747;56.748;13.882;2022-07-29T10:09:53;22.40;99.90
11385;DHT22;5747;56.748;13.882;2022-07-29T10:12:21;22.50;99.90
11385;DHT22;5747;56.748;13.882;2022-07-29T10:14:50;22.20;99.90
11385;DHT22;5747;56.748;13.882;2022-07-29T10:17:19;22.20;99.90
11385;DHT22;5747;56.748;13.882;2022-07-29T10:19:48;22.40;99.90
11385;DHT22;5747;56.748;13.882;2022-07-29T10:22:18;22.60;99.90
11385;DHT22;5747;56.748;13.882;2022-07-29T10:25:07;22.40;99.90
11385;DHT22;5747;56.748;13.882;2022-07-29T10:27:36;22.60;99.90
11385;DHT22;5747;56.748;13.882;2022-07-29T10:30:06;22.70;99.90
11385;DHT22;5747;56.748;13.882;2022-07-29T10:32:54;22.70;99.90
11385;DHT22;5747;56.748;13.882;2022-07-29T10:35:54;22.80;99.90
11385;DHT22;5747;56.748;13.882;2022-07-29T10:38:42;22.40;99.90
11385;DHT22;5747;56.748;13.882;2022-07-29T10:44:18;22.10;99.90
11385;DHT22;5747;56.748;13.882;2022-07-29T10:46:50;22.00;99.90
11385;DHT22;5747;56.748;13.882;2022-07-29T10:49:21;22.00;99.90
11385;DHT22;5747;56.748;13.882;2022-07-29T10:51:57;22.20;99.90
11385;DHT22;5747;56.748;13.882;2022-07-29T10:54:42;22.30;99.90
11385;DHT22;5747;56.748;13.882;2022-07-29T10:57:23;22.30;99.90
11385;DHT22;5747;56.748;13.882;2022-07-29T11:00:31;22.50;99.90
11385;DHT22;5747;56.748;13.882;2022-07-29T11:02:59;22.50;99.90
11385;DHT22;5747;56.748;13.882;2022-07-29T11:05:53;22.50;99.90
11385;DHT22;5747;56.748;13.882;2022-07-29T11:08:24;22.70;99.90
11385;DHT22;5747;56.748;13.882;2022-07-29T11:13:58;22.20;99.90
11385;DHT22;5747;56.748;13.882;2022-07-29T11:16:58;22.20;99.90
11385;DHT22;5747;56.748;13.882;2022-07-29T11:19:27;22.30;99.90
11385;DHT22;5747;56.748;13.882;2022-07-29T11:21:57;22.30;99.90
11385;DHT22;5747;56.748;13.882;2022-07-29T11:24:26;22.50;99.90
11385;DHT22;5747;56.748;13.882;2022-07-29T11:27:16;22.60;99.90
11385;DHT22;5747;56.748;13.882;2022-07-29T11:29:51;22.50;99.90
11385;DHT22;5747;56.748;13.882;2022-07-29T11:32:20;22.50;99.90
11385;DHT22;5747;56.748;13.882;2022-07-29T11:35:10;22.50;99.90
11385;DHT22;5747;56.748;13.882;2022-07-29T11:37:45;22.70;99.90
11385;DHT22;5747;56.748;13.882;2022-07-29T11:40:23;22.70;99.90
11385;DHT22;5747;56.748;13.882;2022-07-29T11:42:53;22.70;99.90
11385;DHT22;5747;56.748;13.882;2022-07-29T11:45:26;23.00;99.90
11385;DHT22;5747;56.748;13.882;2022-07-29T11:48:19;22.90;99.90
11385;DHT22;5747;56.748;13.882;2022-07-29T11:50:58;22.80;99.90
11385;DHT22;5747;56.748;13.882;2022-07-29T11:53:27;22.90;99.90
11385;DHT22;5747;56.748;13.882;2022-07-29T11:55:59;23.00;99.90
11385;DHT22;5747;56.748;13.882;2022-07-29T11:58:31;23.00;99.90
11385;DHT22;5747;56.748;13.882;2022-07-29T12:01:00;22.90;99.90
11385;DHT22;5747;56.748;13.882;2022-07-29T12:04:02;22.40;99.90
11385;DHT22;5747;56.748;13.882;2022-07-29T12:06:32;22.00;99.90
11385;DHT22;5747;56.748;13.882;2022-07-29T12:09:07;22.00;99.90
11385;DHT22;5747;56.748;13.882;2022-07-29T12:11:40;22.20;99.90
11385;DHT22;5747;56.748;13.882;2022-07-29T12:14:28;22.60;99.90
11385;DHT22;5747;56.748;13.882;2022-07-29T12:16:57;23.10;99.90
11385;DHT22;5747;56.748;13.882;2022-07-29T12:19:25;23.00;99.90
11385;DHT22;5747;56.748;13.882;2022-07-29T12:21:54;23.20;99.90
11385;DHT22;5747;56.748;13.882;2022-07-29T12:24:25;23.10;99.90
11385;DHT22;5747;56.748;13.882;2022-07-29T12:26:55;23.40;99.90
11385;DHT22;5747;56.748;13.882;2022-07-29T12:29:25;23.70;99.90
11385;DHT22;5747;56.748;13.882;2022-07-29T12:32:03;23.60;99.90
11385;DHT22;5747;56.748;13.882;2022-07-29T12:34:45;23.20;99.90
11385;DHT22;5747;56.748;13.882;2022-07-29T12:37:14;23.10;99.90
11385;DHT22;5747;56.748;13.882;2022-07-29T12:39:42;22.70;99.90
11385;DHT22;5747;56.748;13.882;2022-07-29T12:42:11;22.70;99.90
11385;DHT22;5747;56.748;13.882;2022-07-29T12:44:48;22.80;99.90
11385;DHT22;5747;56.748;13.882;2022-07-29T12:47:19;23.10;99.90
11385;DHT22;5747;56.748;13.882;2022-07-29T12:49:48;23.40;99.90
11385;DHT22;5747;56.748;13.882;2022-07-29T12:52:26;23.20;99.90
11385;DHT22;5747;56.748;13.882;2022-07-29T12:54:55;23.10;99.90
11385;DHT22;5747;56.748;13.882;2022-07-29T12:57:24;23.20;99.90
11385;DHT22;5747;56.748;13.882;2022-07-29T13:00:05;23.60;99.90
11385;DHT22;5747;56.748;13.882;2022-07-29T13:02:36;23.80;99.90
11385;DHT22;5747;56.748;13.882;2022-07-29T13:05:06;24.10;99.90
11385;DHT22;5747;56.748;13.882;2022-07-29T13:07:36;24.40;99.90
11385;DHT22;5747;56.748;13.882;2022-07-29T13:10:21;24.20;99.90
11385;DHT22;5747;56.748;13.882;2022-07-29T13:13:07;24.40;99.90
11385;DHT22;5747;56.748;13.882;2022-07-29T13:15:36;23.90;99.90
11385;DHT22;5747;56.748;13.882;2022-07-29T13:18:28;24.00;99.90
11385;DHT22;5747;56.748;13.882;2022-07-29T13:20:56;24.00;99.90
11385;DHT22;5747;56.748;13.882;2022-07-29T13:23:24;23.90;99.90
11385;DHT22;5747;56.748;13.882;2022-07-29T13:25:52;23.60;99.90
11385;DHT22;5747;56.748;13.882;2022-07-29T13:28:21;23.40;99.90
11385;DHT22;5747;56.748;13.882;2022-07-29T13:30:49;23.10;99.90
11385;DHT22;5747;56.748;13.882;2022-07-29T13:33:17;23.30;99.90
11385;DHT22;5747;56.748;13.882;2022-07-29T13:35:47;23.10;99.90
11385;DHT22;5747;56.748;13.882;2022-07-29T13:38:15;22.80;99.90
11385;DHT22;5747;56.748;13.882;2022-07-29T13:40:43;22.70;99.90
11385;DHT22;5747;56.748;13.882;2022-07-29T13:43:12;22.80;99.90
11385;DHT22;5747;56.748;13.882;2022-07-29T13:45:40;23.00;99.90
11385;DHT22;5747;56.748;13.882;2022-07-29T13:48:08;22.90;99.90
11385;DHT22;5747;56.748;13.882;2022-07-29T13:50:36;23.00;99.90
11385;DHT22;5747;56.748;13.882;2022-07-29T13:53:06;22.90;99.90
11385;DHT22;5747;56.748;13.882;2022-07-29T13:55:34;23.00;99.90
11385;DHT22;5747;56.748;13.882;2022-07-29T13:58:02;22.60;99.90
11385;DHT22;5747;56.748;13.882;2022-07-29T14:00:30;22.60;99.90
11385;DHT22;5747;56.748;13.882;2022-07-29T14:02:59;22.40;99.90
11385;DHT22;5747;56.748;13.882;2022-07-29T14:05:27;22.10;99.90
11385;DHT22;5747;56.748;13.882;2022-07-29T14:07:55;22.00;99.90
11385;DHT22;5747;56.748;13.882;2022-07-29T14:10:26;22.20;99.90
11385;DHT22;5747;56.748;13.882;2022-07-29T14:12:54;22.60;99.90
11385;DHT22;5747;56.748;13.882;2022-07-29T14:15:23;22.90;99.90
11385;DHT22;5747;56.748;13.882;2022-07-29T14:17:51;22.90;99.90
11385;DHT22;5747;56.748;13.882;2022-07-29T14:20:19;23.10;99.90
11385;DHT22;5747;56.748;13.882;2022-07-29T14:22:47;23.50;99.90
11385;DHT22;5747;56.748;13.882;2022-07-29T14:25:16;23.60;99.90
11385;DHT22;5747;56.748;13.882;2022-07-29T14:27:48;23.90;99.90
11385;DHT22;5747;56.748;13.882;2022-07-29T14:30:16;23.70;99.90
11385;DHT22;5747;56.748;13.882;2022-07-29T14:32:44;23.80;99.90
11385;DHT22;5747;56.748;13.882;2022-07-29T14:35:12;23.60;99.90
11385;DHT22;5747;56.748;13.882;2022-07-29T14:37:41;23.40;99.90
11385;DHT22;5747;56.748;13.882;2022-07-29T14:40:11;23.20;99.90
11385;DHT22;5747;56.748;13.882;2022-07-29T14:42:39;23.00;99.90
11385;DHT22;5747;56.748;13.882;2022-07-29T14:45:09;22.80;99.90
11385;DHT22;5747;56.748;13.882;2022-07-29T14:47:38;22.90;99.90
11385;DHT22;5747;56.748;13.882;2022-07-29T14:50:07;22.90;99.90
11385;DHT22;5747;56.748;13.882;2022-07-29T14:52:36;22.90;99.90
11385;DHT22;5747;56.748;13.882;2022-07-29T14:55:04;23.10;99.90
11385;DHT22;5747;56.748;13.882;2022-07-29T14:57:45;23.30;99.90
11385;DHT22;5747;56.748;13.882;2022-07-29T15:00:15;23.30;99.90
11385;DHT22;5747;56.748;13.882;2022-07-29T15:02:43;23.40;99.90
11385;DHT22;5747;56.748;13.882;2022-07-29T15:05:27;23.10;99.90
11385;DHT22;5747;56.748;13.882;2022-07-29T15:07:56;22.90;99.90
11385;DHT22;5747;56.748;13.882;2022-07-29T15:10:24;22.80;99.90
11385;DHT22;5747;56.748;13.882;2022-07-29T15:12:53;23.00;99.90
11385;DHT22;5747;56.748;13.882;2022-07-29T15:15:23;23.20;99.90
11385;DHT22;5747;56.748;13.882;2022-07-29T15:17:51;23.40;99.90
11385;DHT22;5747;56.748;13.882;2022-07-29T15:20:20;23.30;99.90
11385;DHT22;5747;56.748;13.882;2022-07-29T15:22:48;22.90;99.90
11385;DHT22;5747;56.748;13.882;2022-07-29T15:25:16;22.70;99.90
11385;DHT22;5747;56.748;13.882;2022-07-29T15:27:44;23.20;99.90
11385;DHT22;5747;56.748;13.882;2022-07-29T15:30:18;23.10;99.90
11385;DHT22;5747;56.748;13.882;2022-07-29T15:33:02;23.00;99.90
11385;DHT22;5747;56.748;13.882;2022-07-29T15:35:31;22.90;99.90
11385;DHT22;5747;56.748;13.882;2022-07-29T15:38:06;22.90;99.90
11385;DHT22;5747;56.748;13.882;2022-07-29T15:40:36;22.70;99.90
11385;DHT22;5747;56.748;13.882;2022-07-29T15:43:04;22.60;99.90
11385;DHT22;5747;56.748;13.882;2022-07-29T15:45:35;22.60;99.90
11385;DHT22;5747;56.748;13.882;2022-07-29T15:48:08;22.40;99.90
11385;DHT22;5747;56.748;13.882;2022-07-29T15:50:40;22.40;99.90
11385;DHT22;5747;56.748;13.882;2022-07-29T15:53:13;22.60;99.90
11385;DHT22;5747;56.748;13.882;2022-07-29T15:55:41;22.40;99.90
11385;DHT22;5747;56.748;13.882;2022-07-29T15:58:10;22.20;99.90
11385;DHT22;5747;56.748;13.882;2022-07-29T16:00:38;22.20;99.90
11385;DHT22;5747;56.748;13.882;2022-07-29T16:03:08;22.10;99.90
11385;DHT22;5747;56.748;13.882;2022-07-29T16:05:36;22.10;99.90
11385;DHT22;5747;56.748;13.882;2022-07-29T16:08:04;22.20;99.90
11385;DHT22;5747;56.748;13.882;2022-07-29T16:10:33;22.10;99.90